sensor_id;sensor_type;location;lat;lon;timestamp;P1;durP1;ratioP1;P2;durP2;ratioP2
31114;SDS011;17764;47.152;9.828;2022-12-07T00:00:42;13.20;;;7.93;;
31114;SDS011;17764;47.152;9.828;2022-12-07T00:03:08;18.17;;;8.83;;
31114;SDS011;17764;47.152;9.828;2022-12-07T00:05:34;13.17;;;8.60;;
31114;SDS011;17764;47.152;9.828;2022-12-07T00:08:00;14.90;;;8.33;;
31114;SDS011;17764;47.152;9.828;2022-12-07T00:10:26;17.07;;;7.37;;
31114;SDS011;17764;47.152;9.828;2022-12-07T00:12:52;13.07;;;7.63;;
31114;SDS011;17764;47.152;9.828;2022-12-07T00:15:18;14.13;;;7.17;;
31114;SDS011;17764;47.152;9.828;2022-12-07T00:17:44;13.53;;;7.70;;
31114;SDS011;17764;47.152;9.828;2022-12-07T00:20:10;10.37;;;6.60;;
31114;SDS011;17764;47.152;9.828;2022-12-07T00:22:36;12.07;;;6.87;;
31114;SDS011;17764;47.152;9.828;2022-12-07T00:25:02;12.17;;;6.40;;
31114;SDS011;17764;47.152;9.828;2022-12-07T00:27:28;11.57;;;7.17;;
31114;SDS011;17764;47.152;9.828;2022-12-07T00:29:54;10.40;;;6.43;;
31114;SDS011;17764;47.152;9.828;2022-12-07T00:32:20;10.40;;;5.90;;
31114;SDS011;17764;47.152;9.828;2022-12-07T00:34:46;9.27;;;6.33;;
31114;SDS011;17764;47.152;9.828;2022-12-07T00:37:12;10.17;;;6.07;;
31114;SDS011;17764;47.152;9.828;2022-12-07T00:39:38;10.70;;;6.50;;
31114;SDS011;17764;47.152;9.828;2022-12-07T00:42:04;9.30;;;6.23;;
31114;SDS011;17764;47.152;9.828;2022-12-07T00:44:30;8.23;;;5.80;;
31114;SDS011;17764;47.152;9.828;2022-12-07T00:46:56;9.87;;;6.27;;
31114;SDS011;17764;47.152;9.828;2022-12-07T00:49:22;9.40;;;6.80;;
31114;SDS011;17764;47.152;9.828;2022-12-07T00:51:48;9.30;;;5.83;;
31114;SDS011;17764;47.152;9.828;2022-12-07T00:54:15;11.23;;;6.47;;
31114;SDS011;17764;47.152;9.828;2022-12-07T00:56:41;9.70;;;6.63;;
31114;SDS011;17764;47.152;9.828;2022-12-07T00:59:07;13.57;;;7.33;;
31114;SDS011;17764;47.152;9.828;2022-12-07T01:01:34;10.23;;;7.10;;
31114;SDS011;17764;47.152;9.828;2022-12-07T01:04:01;10.90;;;6.10;;
31114;SDS011;17764;47.152;9.828;2022-12-07T01:06:27;10.37;;;6.43;;
31114;SDS011;17764;47.152;9.828;2022-12-07T01:08:54;9.73;;;6.03;;
31114;SDS011;17764;47.152;9.828;2022-12-07T01:11:21;8.77;;;5.60;;
31114;SDS011;17764;47.152;9.828;2022-12-07T01:13:49;9.23;;;4.93;;
31114;SDS011;17764;47.152;9.828;2022-12-07T01:16:15;6.17;;;4.43;;
31114;SDS011;17764;47.152;9.828;2022-12-07T01:18:41;8.90;;;4.67;;
31114;SDS011;17764;47.152;9.828;2022-12-07T01:21:11;8.30;;;4.73;;
31114;SDS011;17764;47.152;9.828;2022-12-07T01:23:39;5.53;;;3.80;;
31114;SDS011;17764;47.152;9.828;2022-12-07T01:26:09;6.23;;;4.33;;
31114;SDS011;17764;47.152;9.828;2022-12-07T01:28:35;5.30;;;3.80;;
31114;SDS011;17764;47.152;9.828;2022-12-07T01:31:03;6.07;;;3.37;;
31114;SDS011;17764;47.152;9.828;2022-12-07T01:33:30;5.23;;;3.93;;
31114;SDS011;17764;47.152;9.828;2022-12-07T01:36:07;5.37;;;3.73;;
31114;SDS011;17764;47.152;9.828;2022-12-07T01:38:33;6.80;;;4.10;;
31114;SDS011;17764;47.152;9.828;2022-12-07T01:41:00;5.90;;;3.60;;
31114;SDS011;17764;47.152;9.828;2022-12-07T01:43:28;6.97;;;4.13;;
31114;SDS011;17764;47.152;9.828;2022-12-07T01:45:54;6.07;;;3.60;;
31114;SDS011;17764;47.152;9.828;2022-12-07T01:48:37;6.53;;;4.47;;
31114;SDS011;17764;47.152;9.828;2022-12-07T01:51:05;8.77;;;4.50;;
31114;SDS011;17764;47.152;9.828;2022-12-07T01:53:32;7.47;;;4.50;;
31114;SDS011;17764;47.152;9.828;2022-12-07T01:55:59;6.63;;;4.20;;
31114;SDS011;17764;47.152;9.828;2022-12-07T01:58:26;6.30;;;4.30;;
31114;SDS011;17764;47.152;9.828;2022-12-07T02:00:52;6.40;;;4.30;;
31114;SDS011;17764;47.152;9.828;2022-12-07T02:03:19;7.20;;;4.53;;
31114;SDS011;17764;47.152;9.828;2022-12-07T02:05:46;6.97;;;4.73;;
31114;SDS011;17764;47.152;9.828;2022-12-07T02:08:13;7.50;;;4.27;;
31114;SDS011;17764;47.152;9.828;2022-12-07T02:10:39;6.90;;;4.00;;
31114;SDS011;17764;47.152;9.828;2022-12-07T02:13:10;8.23;;;4.83;;
31114;SDS011;17764;47.152;9.828;2022-12-07T02:18:07;7.07;;;4.70;;
31114;SDS011;17764;47.152;9.828;2022-12-07T02:20:38;7.20;;;4.00;;
31114;SDS011;17764;47.152;9.828;2022-12-07T02:28:19;6.83;;;3.90;;
31114;SDS011;17764;47.152;9.828;2022-12-07T02:30:49;6.73;;;3.40;;
31114;SDS011;17764;47.152;9.828;2022-12-07T02:33:26;4.50;;;3.07;;
31114;SDS011;17764;47.152;9.828;2022-12-07T02:35:59;4.20;;;2.43;;
31114;SDS011;17764;47.152;9.828;2022-12-07T02:38:29;5.63;;;2.63;;
31114;SDS011;17764;47.152;9.828;2022-12-07T02:40:57;4.30;;;2.90;;
31114;SDS011;17764;47.152;9.828;2022-12-07T02:43:27;4.07;;;2.97;;
31114;SDS011;17764;47.152;9.828;2022-12-07T02:45:55;4.53;;;3.27;;
31114;SDS011;17764;47.152;9.828;2022-12-07T02:48:22;6.20;;;3.30;;
31114;SDS011;17764;47.152;9.828;2022-12-07T02:50:49;4.77;;;2.97;;
31114;SDS011;17764;47.152;9.828;2022-12-07T02:56:05;4.77;;;2.90;;
31114;SDS011;17764;47.152;9.828;2022-12-07T02:58:37;6.73;;;3.70;;
31114;SDS011;17764;47.152;9.828;2022-12-07T03:01:11;6.40;;;3.30;;
31114;SDS011;17764;47.152;9.828;2022-12-07T03:03:42;7.13;;;4.60;;
31114;SDS011;17764;47.152;9.828;2022-12-07T03:11:14;7.53;;;4.53;;
31114;SDS011;17764;47.152;9.828;2022-12-07T03:13:42;6.97;;;4.30;;
31114;SDS011;17764;47.152;9.828;2022-12-07T03:16:15;8.73;;;4.40;;
31114;SDS011;17764;47.152;9.828;2022-12-07T03:24:24;7.47;;;4.80;;
31114;SDS011;17764;47.152;9.828;2022-12-07T03:26:52;6.93;;;5.00;;
31114;SDS011;17764;47.152;9.828;2022-12-07T03:29:22;8.90;;;5.23;;
31114;SDS011;17764;47.152;9.828;2022-12-07T03:31:59;7.87;;;5.23;;
31114;SDS011;17764;47.152;9.828;2022-12-07T03:34:29;6.93;;;4.80;;
31114;SDS011;17764;47.152;9.828;2022-12-07T03:36:57;7.87;;;4.90;;
31114;SDS011;17764;47.152;9.828;2022-12-07T03:40:00;6.73;;;4.60;;
31114;SDS011;17764;47.152;9.828;2022-12-07T03:42:18;7.40;;;4.17;;
31114;SDS011;17764;47.152;9.828;2022-12-07T03:44:43;6.50;;;4.37;;
31114;SDS011;17764;47.152;9.828;2022-12-07T03:52:35;5.27;;;4.33;;
31114;SDS011;17764;47.152;9.828;2022-12-07T03:55:14;6.93;;;4.60;;
31114;SDS011;17764;47.152;9.828;2022-12-07T03:57:41;7.53;;;4.97;;
31114;SDS011;17764;47.152;9.828;2022-12-07T04:00:09;8.43;;;5.60;;
31114;SDS011;17764;47.152;9.828;2022-12-07T04:02:36;7.67;;;5.07;;
31114;SDS011;17764;47.152;9.828;2022-12-07T04:05:02;7.07;;;5.20;;
31114;SDS011;17764;47.152;9.828;2022-12-07T04:07:28;8.17;;;5.20;;
31114;SDS011;17764;47.152;9.828;2022-12-07T04:09:54;5.87;;;4.57;;
31114;SDS011;17764;47.152;9.828;2022-12-07T04:12:21;8.83;;;4.50;;
31114;SDS011;17764;47.152;9.828;2022-12-07T04:14:47;5.27;;;4.00;;
31114;SDS011;17764;47.152;9.828;2022-12-07T04:17:13;8.17;;;5.27;;
31114;SDS011;17764;47.152;9.828;2022-12-07T04:19:39;7.57;;;4.23;;
31114;SDS011;17764;47.152;9.828;2022-12-07T04:22:05;6.93;;;4.37;;
31114;SDS011;17764;47.152;9.828;2022-12-07T04:24:32;5.20;;;3.90;;
31114;SDS011;17764;47.152;9.828;2022-12-07T04:26:58;6.87;;;4.30;;
31114;SDS011;17764;47.152;9.828;2022-12-07T04:29:24;6.30;;;4.40;;
31114;SDS011;17764;47.152;9.828;2022-12-07T04:31:50;6.00;;;4.20;;
31114;SDS011;17764;47.152;9.828;2022-12-07T04:34:17;7.00;;;4.20;;
31114;SDS011;17764;47.152;9.828;2022-12-07T04:36:43;5.43;;;3.80;;
31114;SDS011;17764;47.152;9.828;2022-12-07T04:41:44;6.23;;;3.70;;
31114;SDS011;17764;47.152;9.828;2022-12-07T04:44:10;5.83;;;3.90;;
31114;SDS011;17764;47.152;9.828;2022-12-07T04:46:39;4.10;;;3.30;;
31114;SDS011;17764;47.152;9.828;2022-12-07T04:49:05;5.70;;;3.93;;
31114;SDS011;17764;47.152;9.828;2022-12-07T04:51:31;4.47;;;3.63;;
31114;SDS011;17764;47.152;9.828;2022-12-07T04:53:57;5.70;;;3.70;;
31114;SDS011;17764;47.152;9.828;2022-12-07T04:56:24;5.97;;;3.67;;
31114;SDS011;17764;47.152;9.828;2022-12-07T04:58:50;4.57;;;3.50;;
31114;SDS011;17764;47.152;9.828;2022-12-07T05:01:17;5.13;;;3.83;;
31114;SDS011;17764;47.152;9.828;2022-12-07T05:03:44;5.43;;;4.00;;
31114;SDS011;17764;47.152;9.828;2022-12-07T05:06:10;7.27;;;4.80;;
31114;SDS011;17764;47.152;9.828;2022-12-07T05:08:36;7.03;;;4.23;;
31114;SDS011;17764;47.152;9.828;2022-12-07T05:11:03;7.43;;;4.53;;
31114;SDS011;17764;47.152;9.828;2022-12-07T05:13:29;5.23;;;3.73;;
31114;SDS011;17764;47.152;9.828;2022-12-07T05:15:55;5.63;;;3.73;;
31114;SDS011;17764;47.152;9.828;2022-12-07T05:18:21;4.93;;;3.53;;
31114;SDS011;17764;47.152;9.828;2022-12-07T05:20:48;5.47;;;3.70;;
31114;SDS011;17764;47.152;9.828;2022-12-07T05:23:16;4.63;;;3.53;;
31114;SDS011;17764;47.152;9.828;2022-12-07T05:25:42;5.20;;;3.77;;
31114;SDS011;17764;47.152;9.828;2022-12-07T05:28:08;7.40;;;4.37;;
31114;SDS011;17764;47.152;9.828;2022-12-07T05:30:34;4.97;;;3.57;;
31114;SDS011;17764;47.152;9.828;2022-12-07T05:33:00;5.53;;;3.90;;
31114;SDS011;17764;47.152;9.828;2022-12-07T05:35:27;7.37;;;3.80;;
31114;SDS011;17764;47.152;9.828;2022-12-07T05:37:53;5.13;;;3.43;;
31114;SDS011;17764;47.152;9.828;2022-12-07T05:40:19;6.30;;;4.00;;
31114;SDS011;17764;47.152;9.828;2022-12-07T05:42:45;5.77;;;3.67;;
31114;SDS011;17764;47.152;9.828;2022-12-07T05:45:11;5.40;;;3.40;;
31114;SDS011;17764;47.152;9.828;2022-12-07T05:47:38;4.70;;;3.53;;
31114;SDS011;17764;47.152;9.828;2022-12-07T05:50:04;7.07;;;3.53;;
31114;SDS011;17764;47.152;9.828;2022-12-07T05:52:30;4.93;;;3.80;;
31114;SDS011;17764;47.152;9.828;2022-12-07T05:54:56;6.47;;;4.47;;
31114;SDS011;17764;47.152;9.828;2022-12-07T05:57:22;5.37;;;3.60;;
31114;SDS011;17764;47.152;9.828;2022-12-07T05:59:48;7.10;;;4.03;;
31114;SDS011;17764;47.152;9.828;2022-12-07T06:02:15;6.27;;;4.00;;
31114;SDS011;17764;47.152;9.828;2022-12-07T06:04:43;8.70;;;4.63;;
31114;SDS011;17764;47.152;9.828;2022-12-07T06:07:10;7.07;;;4.77;;
31114;SDS011;17764;47.152;9.828;2022-12-07T06:09:36;6.47;;;4.50;;
31114;SDS011;17764;47.152;9.828;2022-12-07T06:12:02;5.87;;;4.13;;
31114;SDS011;17764;47.152;9.828;2022-12-07T06:14:47;5.93;;;4.10;;
31114;SDS011;17764;47.152;9.828;2022-12-07T06:17:13;5.90;;;4.43;;
31114;SDS011;17764;47.152;9.828;2022-12-07T06:19:39;6.40;;;3.97;;
31114;SDS011;17764;47.152;9.828;2022-12-07T06:22:06;7.20;;;4.30;;
31114;SDS011;17764;47.152;9.828;2022-12-07T06:24:32;6.93;;;4.60;;
31114;SDS011;17764;47.152;9.828;2022-12-07T06:26:58;4.83;;;3.90;;
31114;SDS011;17764;47.152;9.828;2022-12-07T06:29:24;6.30;;;4.33;;
31114;SDS011;17764;47.152;9.828;2022-12-07T06:31:50;5.83;;;3.70;;
31114;SDS011;17764;47.152;9.828;2022-12-07T06:34:18;5.33;;;3.67;;
31114;SDS011;17764;47.152;9.828;2022-12-07T06:36:44;5.43;;;3.67;;
31114;SDS011;17764;47.152;9.828;2022-12-07T06:39:12;6.40;;;3.67;;
31114;SDS011;17764;47.152;9.828;2022-12-07T06:41:38;5.00;;;3.70;;
31114;SDS011;17764;47.152;9.828;2022-12-07T06:44:05;3.57;;;3.27;;
31114;SDS011;17764;47.152;9.828;2022-12-07T06:46:31;5.30;;;4.10;;
31114;SDS011;17764;47.152;9.828;2022-12-07T06:48:58;5.07;;;3.60;;
31114;SDS011;17764;47.152;9.828;2022-12-07T06:51:24;4.80;;;3.30;;
31114;SDS011;17764;47.152;9.828;2022-12-07T06:53:50;6.47;;;3.50;;
31114;SDS011;17764;47.152;9.828;2022-12-07T06:56:16;4.17;;;3.00;;
31114;SDS011;17764;47.152;9.828;2022-12-07T06:58:42;4.40;;;3.40;;
31114;SDS011;17764;47.152;9.828;2022-12-07T07:01:09;4.53;;;3.53;;
31114;SDS011;17764;47.152;9.828;2022-12-07T07:03:35;9.53;;;4.57;;
31114;SDS011;17764;47.152;9.828;2022-12-07T07:06:01;6.00;;;4.37;;
31114;SDS011;17764;47.152;9.828;2022-12-07T07:08:27;8.83;;;5.60;;
31114;SDS011;17764;47.152;9.828;2022-12-07T07:10:53;8.37;;;5.83;;
31114;SDS011;17764;47.152;9.828;2022-12-07T07:13:19;7.30;;;5.67;;
31114;SDS011;17764;47.152;9.828;2022-12-07T07:15:45;7.90;;;5.50;;
31114;SDS011;17764;47.152;9.828;2022-12-07T07:18:12;8.37;;;5.43;;
31114;SDS011;17764;47.152;9.828;2022-12-07T07:20:38;7.33;;;5.40;;
31114;SDS011;17764;47.152;9.828;2022-12-07T07:23:04;6.07;;;5.00;;
31114;SDS011;17764;47.152;9.828;2022-12-07T07:25:31;6.77;;;4.97;;
31114;SDS011;17764;47.152;9.828;2022-12-07T07:27:57;7.63;;;4.83;;
31114;SDS011;17764;47.152;9.828;2022-12-07T07:30:23;6.23;;;4.43;;
31114;SDS011;17764;47.152;9.828;2022-12-07T07:32:49;6.33;;;4.00;;
31114;SDS011;17764;47.152;9.828;2022-12-07T07:35:15;6.40;;;4.20;;
31114;SDS011;17764;47.152;9.828;2022-12-07T07:37:42;6.87;;;4.20;;
31114;SDS011;17764;47.152;9.828;2022-12-07T07:40:08;6.77;;;4.30;;
31114;SDS011;17764;47.152;9.828;2022-12-07T07:42:34;7.37;;;3.73;;
31114;SDS011;17764;47.152;9.828;2022-12-07T07:45:01;5.37;;;4.03;;
31114;SDS011;17764;47.152;9.828;2022-12-07T07:47:27;5.83;;;3.90;;
31114;SDS011;17764;47.152;9.828;2022-12-07T07:49:54;6.57;;;4.20;;
31114;SDS011;17764;47.152;9.828;2022-12-07T07:52:20;13.10;;;9.47;;
31114;SDS011;17764;47.152;9.828;2022-12-07T07:54:46;24.60;;;17.13;;
31114;SDS011;17764;47.152;9.828;2022-12-07T07:57:12;20.93;;;15.67;;
31114;SDS011;17764;47.152;9.828;2022-12-07T07:59:38;19.00;;;13.30;;
31114;SDS011;17764;47.152;9.828;2022-12-07T10:26:16;6.67;;;4.57;;
31114;SDS011;17764;47.152;9.828;2022-12-07T10:28:45;7.67;;;5.00;;
31114;SDS011;17764;47.152;9.828;2022-12-07T10:31:16;6.47;;;4.80;;
31114;SDS011;17764;47.152;9.828;2022-12-07T10:33:51;6.67;;;5.00;;
31114;SDS011;17764;47.152;9.828;2022-12-07T10:36:19;6.63;;;4.97;;
31114;SDS011;17764;47.152;9.828;2022-12-07T10:38:47;8.50;;;5.07;;
31114;SDS011;17764;47.152;9.828;2022-12-07T10:41:14;8.30;;;5.30;;
31114;SDS011;17764;47.152;9.828;2022-12-07T10:43:48;6.80;;;5.40;;
31114;SDS011;17764;47.152;9.828;2022-12-07T10:46:37;8.07;;;5.37;;
31114;SDS011;17764;47.152;9.828;2022-12-07T10:51:51;7.60;;;5.27;;
31114;SDS011;17764;47.152;9.828;2022-12-07T10:54:27;7.67;;;5.40;;
31114;SDS011;17764;47.152;9.828;2022-12-07T10:59:43;8.13;;;5.63;;
31114;SDS011;17764;47.152;9.828;2022-12-07T11:05:05;7.30;;;5.17;;
31114;SDS011;17764;47.152;9.828;2022-12-07T11:07:41;8.70;;;5.20;;
31114;SDS011;17764;47.152;9.828;2022-12-07T11:15:55;7.80;;;6.13;;
31114;SDS011;17764;47.152;9.828;2022-12-07T11:18:27;8.37;;;5.60;;
31114;SDS011;17764;47.152;9.828;2022-12-07T11:36:56;11.37;;;6.83;;
31114;SDS011;17764;47.152;9.828;2022-12-07T11:39:30;9.03;;;6.43;;
31114;SDS011;17764;47.152;9.828;2022-12-07T11:42:20;8.70;;;5.80;;
31114;SDS011;17764;47.152;9.828;2022-12-07T11:47:21;9.77;;;6.83;;
31114;SDS011;17764;47.152;9.828;2022-12-07T11:52:17;13.37;;;9.53;;
31114;SDS011;17764;47.152;9.828;2022-12-07T11:54:45;16.50;;;10.63;;
31114;SDS011;17764;47.152;9.828;2022-12-07T11:57:20;17.27;;;12.33;;
31114;SDS011;17764;47.152;9.828;2022-12-07T11:59:59;22.87;;;13.33;;
31114;SDS011;17764;47.152;9.828;2022-12-07T12:02:28;19.20;;;12.80;;
31114;SDS011;17764;47.152;9.828;2022-12-07T12:05:20;19.60;;;12.90;;
31114;SDS011;17764;47.152;9.828;2022-12-07T12:07:46;18.27;;;12.67;;
31114;SDS011;17764;47.152;9.828;2022-12-07T12:20:26;23.20;;;13.40;;
31114;SDS011;17764;47.152;9.828;2022-12-07T12:23:05;22.13;;;12.43;;
31114;SDS011;17764;47.152;9.828;2022-12-07T12:25:35;22.70;;;12.67;;
31114;SDS011;17764;47.152;9.828;2022-12-07T12:28:03;17.60;;;11.53;;
31114;SDS011;17764;47.152;9.828;2022-12-07T12:33:01;16.83;;;11.53;;
31114;SDS011;17764;47.152;9.828;2022-12-07T12:35:45;15.77;;;11.27;;
31114;SDS011;17764;47.152;9.828;2022-12-07T12:38:25;15.20;;;11.20;;
31114;SDS011;17764;47.152;9.828;2022-12-07T12:40:52;15.97;;;11.17;;
31114;SDS011;17764;47.152;9.828;2022-12-07T12:51:51;15.53;;;9.90;;
31114;SDS011;17764;47.152;9.828;2022-12-07T13:02:20;15.03;;;10.83;;
31114;SDS011;17764;47.152;9.828;2022-12-07T13:04:49;14.37;;;10.20;;
31114;SDS011;17764;47.152;9.828;2022-12-07T13:10:01;14.27;;;10.37;;
31114;SDS011;17764;47.152;9.828;2022-12-07T13:12:28;15.57;;;10.43;;
31114;SDS011;17764;47.152;9.828;2022-12-07T13:14:58;14.20;;;11.10;;
31114;SDS011;17764;47.152;9.828;2022-12-07T13:18:21;13.70;;;9.90;;
31114;SDS011;17764;47.152;9.828;2022-12-07T13:20:42;16.17;;;10.57;;
31114;SDS011;17764;47.152;9.828;2022-12-07T13:22:57;13.17;;;9.70;;
31114;SDS011;17764;47.152;9.828;2022-12-07T13:25:31;14.87;;;10.77;;
31114;SDS011;17764;47.152;9.828;2022-12-07T13:28:08;16.53;;;10.77;;
31114;SDS011;17764;47.152;9.828;2022-12-07T13:30:44;14.40;;;10.40;;
31114;SDS011;17764;47.152;9.828;2022-12-07T13:33:11;13.80;;;9.83;;
31114;SDS011;17764;47.152;9.828;2022-12-07T13:35:38;15.40;;;10.70;;
31114;SDS011;17764;47.152;9.828;2022-12-07T13:38:05;14.87;;;10.10;;
31114;SDS011;17764;47.152;9.828;2022-12-07T13:40:32;14.97;;;10.30;;
31114;SDS011;17764;47.152;9.828;2022-12-07T13:42:59;14.63;;;10.80;;
31114;SDS011;17764;47.152;9.828;2022-12-07T13:45:29;16.57;;;10.80;;
31114;SDS011;17764;47.152;9.828;2022-12-07T13:48:35;14.03;;;10.17;;
31114;SDS011;17764;47.152;9.828;2022-12-07T13:51:02;14.37;;;10.23;;
31114;SDS011;17764;47.152;9.828;2022-12-07T13:53:28;17.60;;;10.23;;
31114;SDS011;17764;47.152;9.828;2022-12-07T13:55:56;15.57;;;10.33;;
31114;SDS011;17764;47.152;9.828;2022-12-07T13:58:23;15.83;;;10.53;;
31114;SDS011;17764;47.152;9.828;2022-12-07T14:00:49;13.27;;;10.30;;
31114;SDS011;17764;47.152;9.828;2022-12-07T14:05:42;15.53;;;10.07;;
31114;SDS011;17764;47.152;9.828;2022-12-07T14:10:41;13.53;;;9.70;;
31114;SDS011;17764;47.152;9.828;2022-12-07T14:15:44;13.07;;;9.93;;
31114;SDS011;17764;47.152;9.828;2022-12-07T14:18:58;15.60;;;10.40;;
31114;SDS011;17764;47.152;9.828;2022-12-07T14:21:26;13.67;;;10.27;;
31114;SDS011;17764;47.152;9.828;2022-12-07T14:24:11;15.70;;;10.50;;
31114;SDS011;17764;47.152;9.828;2022-12-07T14:26:38;15.90;;;10.23;;
31114;SDS011;17764;47.152;9.828;2022-12-07T14:29:21;14.20;;;10.17;;
31114;SDS011;17764;47.152;9.828;2022-12-07T14:31:51;15.40;;;10.30;;
31114;SDS011;17764;47.152;9.828;2022-12-07T14:34:19;17.63;;;10.70;;
31114;SDS011;17764;47.152;9.828;2022-12-07T14:36:46;15.70;;;11.00;;
31114;SDS011;17764;47.152;9.828;2022-12-07T14:39:12;18.73;;;11.10;;
31114;SDS011;17764;47.152;9.828;2022-12-07T14:41:38;18.77;;;11.00;;
31114;SDS011;17764;47.152;9.828;2022-12-07T14:44:17;18.87;;;10.83;;
31114;SDS011;17764;47.152;9.828;2022-12-07T14:46:43;14.73;;;10.37;;
31114;SDS011;17764;47.152;9.828;2022-12-07T14:49:09;17.03;;;10.57;;
31114;SDS011;17764;47.152;9.828;2022-12-07T14:51:36;17.07;;;11.37;;
31114;SDS011;17764;47.152;9.828;2022-12-07T14:54:04;15.83;;;10.23;;
31114;SDS011;17764;47.152;9.828;2022-12-07T14:56:30;15.07;;;10.53;;
31114;SDS011;17764;47.152;9.828;2022-12-07T14:58:56;15.90;;;10.07;;
31114;SDS011;17764;47.152;9.828;2022-12-07T15:01:22;14.07;;;9.90;;
31114;SDS011;17764;47.152;9.828;2022-12-07T15:03:49;15.17;;;10.43;;
31114;SDS011;17764;47.152;9.828;2022-12-07T15:06:16;14.40;;;9.90;;
31114;SDS011;17764;47.152;9.828;2022-12-07T15:08:42;14.17;;;9.67;;
31114;SDS011;17764;47.152;9.828;2022-12-07T15:11:12;12.73;;;9.50;;
31114;SDS011;17764;47.152;9.828;2022-12-07T15:13:38;14.87;;;9.97;;
31114;SDS011;17764;47.152;9.828;2022-12-07T15:16:38;15.53;;;9.53;;
31114;SDS011;17764;47.152;9.828;2022-12-07T15:19:05;12.83;;;9.23;;
31114;SDS011;17764;47.152;9.828;2022-12-07T15:21:31;14.63;;;10.17;;
31114;SDS011;17764;47.152;9.828;2022-12-07T15:23:57;13.97;;;9.30;;
31114;SDS011;17764;47.152;9.828;2022-12-07T15:26:23;15.13;;;9.73;;
31114;SDS011;17764;47.152;9.828;2022-12-07T15:28:49;17.77;;;11.77;;
31114;SDS011;17764;47.152;9.828;2022-12-07T15:31:15;18.60;;;12.33;;
31114;SDS011;17764;47.152;9.828;2022-12-07T15:33:43;21.77;;;14.47;;
31114;SDS011;17764;47.152;9.828;2022-12-07T15:36:12;31.27;;;18.97;;
31114;SDS011;17764;47.152;9.828;2022-12-07T15:38:43;30.73;;;21.10;;
31114;SDS011;17764;47.152;9.828;2022-12-07T15:41:09;34.40;;;22.13;;
31114;SDS011;17764;47.152;9.828;2022-12-07T15:43:36;28.03;;;19.93;;
31114;SDS011;17764;47.152;9.828;2022-12-07T15:46:20;23.87;;;16.83;;
31114;SDS011;17764;47.152;9.828;2022-12-07T15:48:46;21.70;;;14.93;;
31114;SDS011;17764;47.152;9.828;2022-12-07T15:51:12;20.90;;;14.27;;
31114;SDS011;17764;47.152;9.828;2022-12-07T15:53:38;20.20;;;13.00;;
31114;SDS011;17764;47.152;9.828;2022-12-07T15:56:08;19.67;;;12.67;;
31114;SDS011;17764;47.152;9.828;2022-12-07T15:58:34;16.83;;;11.63;;
31114;SDS011;17764;47.152;9.828;2022-12-07T16:01:00;16.60;;;12.10;;
31114;SDS011;17764;47.152;9.828;2022-12-07T16:03:29;17.00;;;12.30;;
31114;SDS011;17764;47.152;9.828;2022-12-07T16:05:55;15.93;;;12.40;;
31114;SDS011;17764;47.152;9.828;2022-12-07T16:08:21;18.93;;;11.50;;
31114;SDS011;17764;47.152;9.828;2022-12-07T16:10:47;28.67;;;15.77;;
31114;SDS011;17764;47.152;9.828;2022-12-07T16:13:13;60.57;;;29.17;;
31114;SDS011;17764;47.152;9.828;2022-12-07T16:15:39;77.53;;;34.20;;
31114;SDS011;17764;47.152;9.828;2022-12-07T16:18:05;73.00;;;34.07;;
31114;SDS011;17764;47.152;9.828;2022-12-07T16:20:31;72.13;;;32.97;;
31114;SDS011;17764;47.152;9.828;2022-12-07T16:22:58;68.20;;;32.97;;
31114;SDS011;17764;47.152;9.828;2022-12-07T16:25:24;60.40;;;28.57;;
31114;SDS011;17764;47.152;9.828;2022-12-07T16:27:51;43.10;;;23.43;;
31114;SDS011;17764;47.152;9.828;2022-12-07T16:30:17;35.20;;;19.93;;
31114;SDS011;17764;47.152;9.828;2022-12-07T16:32:43;35.07;;;18.67;;
31114;SDS011;17764;47.152;9.828;2022-12-07T16:35:09;24.90;;;14.73;;
31114;SDS011;17764;47.152;9.828;2022-12-07T16:37:36;25.00;;;14.80;;
31114;SDS011;17764;47.152;9.828;2022-12-07T16:40:02;25.30;;;15.43;;
31114;SDS011;17764;47.152;9.828;2022-12-07T16:42:32;23.53;;;16.03;;
31114;SDS011;17764;47.152;9.828;2022-12-07T16:44:58;22.67;;;14.87;;
31114;SDS011;17764;47.152;9.828;2022-12-07T16:47:24;23.07;;;15.10;;
31114;SDS011;17764;47.152;9.828;2022-12-07T16:49:50;21.10;;;13.80;;
31114;SDS011;17764;47.152;9.828;2022-12-07T16:52:18;18.20;;;12.63;;
31114;SDS011;17764;47.152;9.828;2022-12-07T16:54:44;19.30;;;12.47;;
31114;SDS011;17764;47.152;9.828;2022-12-07T16:57:11;16.70;;;12.63;;
31114;SDS011;17764;47.152;9.828;2022-12-07T16:59:37;16.43;;;11.93;;
31114;SDS011;17764;47.152;9.828;2022-12-07T17:02:03;18.57;;;12.00;;
31114;SDS011;17764;47.152;9.828;2022-12-07T17:04:31;18.20;;;12.10;;
31114;SDS011;17764;47.152;9.828;2022-12-07T17:06:57;15.97;;;11.63;;
31114;SDS011;17764;47.152;9.828;2022-12-07T17:09:23;18.03;;;12.77;;
31114;SDS011;17764;47.152;9.828;2022-12-07T17:11:50;19.40;;;13.20;;
31114;SDS011;17764;47.152;9.828;2022-12-07T17:14:16;20.33;;;13.63;;
31114;SDS011;17764;47.152;9.828;2022-12-07T17:17:01;19.27;;;13.47;;
31114;SDS011;17764;47.152;9.828;2022-12-07T17:19:27;19.90;;;13.77;;
31114;SDS011;17764;47.152;9.828;2022-12-07T17:21:53;19.07;;;12.77;;
31114;SDS011;17764;47.152;9.828;2022-12-07T17:24:19;17.93;;;13.13;;
31114;SDS011;17764;47.152;9.828;2022-12-07T17:26:45;18.23;;;12.90;;
31114;SDS011;17764;47.152;9.828;2022-12-07T17:29:12;18.93;;;12.73;;
31114;SDS011;17764;47.152;9.828;2022-12-07T17:31:39;17.43;;;12.33;;
31114;SDS011;17764;47.152;9.828;2022-12-07T17:34:09;18.37;;;13.20;;
31114;SDS011;17764;47.152;9.828;2022-12-07T17:36:36;17.70;;;11.87;;
31114;SDS011;17764;47.152;9.828;2022-12-07T17:39:06;17.20;;;12.27;;
31114;SDS011;17764;47.152;9.828;2022-12-07T17:41:32;16.87;;;12.30;;
31114;SDS011;17764;47.152;9.828;2022-12-07T17:44:18;18.13;;;12.57;;
31114;SDS011;17764;47.152;9.828;2022-12-07T17:46:46;20.20;;;14.07;;
31114;SDS011;17764;47.152;9.828;2022-12-07T17:49:13;20.43;;;13.67;;
31114;SDS011;17764;47.152;9.828;2022-12-07T17:51:39;19.50;;;14.23;;
31114;SDS011;17764;47.152;9.828;2022-12-07T17:54:23;23.23;;;14.73;;
31114;SDS011;17764;47.152;9.828;2022-12-07T17:56:50;22.90;;;14.57;;
31114;SDS011;17764;47.152;9.828;2022-12-07T17:59:16;20.27;;;13.93;;
31114;SDS011;17764;47.152;9.828;2022-12-07T18:01:42;18.70;;;13.03;;
31114;SDS011;17764;47.152;9.828;2022-12-07T18:04:08;18.40;;;13.73;;
31114;SDS011;17764;47.152;9.828;2022-12-07T18:06:34;21.00;;;14.83;;
31114;SDS011;17764;47.152;9.828;2022-12-07T18:09:01;20.07;;;14.53;;
31114;SDS011;17764;47.152;9.828;2022-12-07T18:11:27;20.03;;;13.77;;
31114;SDS011;17764;47.152;9.828;2022-12-07T18:13:53;20.80;;;14.73;;
31114;SDS011;17764;47.152;9.828;2022-12-07T18:16:20;20.53;;;14.77;;
31114;SDS011;17764;47.152;9.828;2022-12-07T18:18:46;19.10;;;14.63;;
31114;SDS011;17764;47.152;9.828;2022-12-07T18:21:16;20.30;;;14.10;;
31114;SDS011;17764;47.152;9.828;2022-12-07T18:23:43;23.93;;;16.60;;
31114;SDS011;17764;47.152;9.828;2022-12-07T18:26:09;20.80;;;15.10;;
31114;SDS011;17764;47.152;9.828;2022-12-07T18:28:37;21.47;;;15.70;;
31114;SDS011;17764;47.152;9.828;2022-12-07T18:31:03;22.27;;;15.87;;
31114;SDS011;17764;47.152;9.828;2022-12-07T18:33:29;23.70;;;16.33;;
31114;SDS011;17764;47.152;9.828;2022-12-07T18:35:55;24.17;;;15.83;;
31114;SDS011;17764;47.152;9.828;2022-12-07T18:38:23;22.27;;;14.83;;
31114;SDS011;17764;47.152;9.828;2022-12-07T18:40:49;21.20;;;14.10;;
31114;SDS011;17764;47.152;9.828;2022-12-07T18:43:15;21.30;;;14.03;;
31114;SDS011;17764;47.152;9.828;2022-12-07T18:45:42;18.73;;;13.63;;
31114;SDS011;17764;47.152;9.828;2022-12-07T18:48:12;19.70;;;13.87;;
31114;SDS011;17764;47.152;9.828;2022-12-07T18:50:38;19.40;;;14.07;;